Time;durP1;ratioP1;P1;durP2;ratioP2;P2;SDS_P1;SDS_P2;PMS_P1;PMS_P2;Temp;Humidity;BMP_temperature;BMP_pressure;BME280_temperature;BME280_humidity;BME280_pressure;Samples;Min_cycle;Max_cycle;Signal;HPM_P1;HPM_P2
2022/07/03 00:02:16;;;;;;;5.22;2.22;;;;;;;20.76;44.43;101785.84;5144410;28;20494;-38
2022/07/03 00:05:10;;;;;;;8.02;3.00;;;;;;;20.76;44.54;101786.66;5169755;28;20961;-36
2022/07/03 00:07:43;;;;;;;4.63;2.72;;;;;;;20.67;44.61;101771.72;5182005;28;20411;-37
2022/07/03 00:10:16;;;;;;;4.55;2.47;;;;;;;20.52;44.83;101752.19;5194097;28;20432;-36
2022/07/03 00:12:48;;;;;;;8.27;3.47;;;;;;;20.71;44.77;101791.78;5182103;28;20429;-37
2022/07/03 00:15:23;;;;;;;7.15;2.92;;;;;;;20.71;44.87;101789.91;5160065;28;20438;-37
2022/07/03 00:17:55;;;;;;;7.28;3.53;;;;;;;20.72;44.91;101785.41;5190919;28;20433;-37
2022/07/03 00:20:37;;;;;;;14.25;3.53;;;;;;;20.55;44.83;101760.69;5180235;28;20516;-36
2022/07/03 00:23:14;;;;;;;13.00;4.18;;;;;;;20.59;44.99;101753.06;5191376;28;20433;-35
2022/07/03 00:25:47;;;;;;;12.48;3.67;;;;;;;20.64;44.86;101777.47;5193304;28;20751;-39
2022/07/03 00:28:21;;;;;;;11.43;3.93;;;;;;;20.65;44.65;101758.47;5193647;28;20512;-37
2022/07/03 00:30:58;;;;;;;14.50;4.32;;;;;;;20.71;44.69;101767.63;5193757;28;20429;-37
2022/07/03 00:33:35;;;;;;;9.68;3.45;;;;;;;20.80;44.82;101781.72;5192388;28;20425;-36
2022/07/03 00:36:09;;;;;;;7.75;2.60;;;;;;;20.64;44.79;101748.78;5175167;28;20428;-36
2022/07/03 00:38:44;;;;;;;5.82;2.58;;;;;;;20.78;44.71;101778.41;5192539;28;20530;-36
2022/07/03 00:41:28;;;;;;;8.13;2.55;;;;;;;20.69;44.82;101770.50;5196966;28;20433;-37
2022/07/03 00:44:01;;;;;;;7.32;2.42;;;;;;;20.80;44.81;101782.56;5198883;28;20427;-38
2022/07/03 00:46:39;;;;;;;4.20;2.23;;;;;;;20.80;44.48;101781.72;5184039;28;20417;-39
2022/07/03 00:49:12;;;;;;;5.78;2.47;;;;;;;20.80;44.67;101787.94;5194157;28;20492;-36
2022/07/03 00:51:49;;;;;;;9.00;2.92;;;;;;;20.81;44.61;101786.06;5195116;28;20929;-39
2022/07/03 00:54:23;;;;;;;7.82;2.63;;;;;;;20.81;44.60;101786.94;5195589;28;20968;-38
2022/07/03 00:57:00;;;;;;;7.55;2.95;;;;;;;20.64;44.50;101762.19;5197056;28;20521;-37
2022/07/03 00:59:33;;;;;;;7.30;3.03;;;;;;;20.82;44.50;101782.38;5197694;28;20405;-37
2022/07/03 01:02:09;;;;;;;7.63;3.28;;;;;;;20.82;44.45;101779.69;5197593;28;20467;-35
2022/07/03 01:04:52;;;;;;;7.28;2.33;;;;;;;20.77;44.42;101766.00;5191208;28;20773;-36
2022/07/03 01:07:37;;;;;;;4.20;1.75;;;;;;;20.78;44.47;101759.59;5165657;28;20465;-41
2022/07/03 01:10:21;;;;;;;6.00;2.22;;;;;;;20.84;44.41;101788.38;5190057;28;20405;-36
2022/07/03 01:13:07;;;;;;;4.80;1.55;;;;;;;20.73;44.39;101755.66;5193496;28;20476;-36
2022/07/03 01:15:50;;;;;;;3.58;1.60;;;;;;;20.83;44.26;101781.34;5193605;28;20408;-36
2022/07/03 01:18:41;;;;;;;3.72;1.80;;;;;;;20.69;44.36;101748.22;5200111;28;20429;-37
2022/07/03 01:21:31;;;;;;;6.82;1.90;;;;;;;20.80;44.32;101765.63;5193796;28;20425;-36
2022/07/03 01:24:44;;;;;;;3.65;1.35;;;;;;;20.76;44.25;101762.50;5194614;28;20425;-37
2022/07/03 01:27:25;;;;;;;2.75;1.70;;;;;;;20.67;44.21;101747.56;5195818;28;20428;-36
2022/07/03 01:30:06;;;;;;;3.83;1.60;;;;;;;20.85;44.24;101773.94;5194877;28;20965;-36
2022/07/03 01:32:44;;;;;;;5.43;2.03;;;;;;;20.78;44.31;101765.84;5172444;28;20483;-36
2022/07/03 01:35:22;;;;;;;18.33;2.30;;;;;;;20.79;44.32;101763.97;5188537;28;20433;-37
2022/07/03 01:37:56;;;;;;;2.85;1.48;;;;;;;20.65;44.31;101744.22;5196933;28;20527;-36
2022/07/03 01:40:29;;;;;;;3.45;1.70;;;;;;;20.77;44.61;101768.69;5198177;28;20475;-37
2022/07/03 01:43:06;;;;;;;3.88;1.67;;;;;;;20.75;44.35;101778.78;5194751;28;20552;-36
2022/07/03 01:45:43;;;;;;;2.75;1.73;;;;;;;20.70;44.27;101766.78;5195044;28;20464;-38
2022/07/03 01:48:17;;;;;;;3.27;1.83;;;;;;;20.61;44.52;101746.47;5186801;28;20417;-38
2022/07/03 01:50:51;;;;;;;4.15;1.60;;;;;;;20.55;44.52;101739.19;5199448;28;20514;-37
2022/07/03 01:53:27;;;;;;;4.15;1.58;;;;;;;20.43;44.61;101727.31;5196898;28;20432;-35
2022/07/03 01:56:03;;;;;;;4.20;1.60;;;;;;;20.63;44.67;101760.56;5199549;28;22282;-37
2022/07/03 01:58:37;;;;;;;3.65;1.77;;;;;;;20.59;44.90;101753.88;5201762;28;20459;-39
2022/07/03 02:01:26;;;;;;;3.78;1.63;;;;;;;20.63;44.70;101765.09;5200315;28;20413;-38
2022/07/03 02:04:05;;;;;;;3.83;1.70;;;;;;;20.59;44.86;101745.84;5197172;28;20543;-34
2022/07/03 02:06:44;;;;;;;4.82;1.60;;;;;;;20.66;45.02;101760.16;5200992;28;20504;-38
2022/07/03 02:09:24;;;;;;;4.07;1.83;;;;;;;20.66;45.00;101760.16;5197941;28;20423;-35
2022/07/03 02:11:57;;;;;;;4.68;1.60;;;;;;;20.65;45.18;101763.84;5202128;28;20973;-35
2022/07/03 02:14:38;;;;;;;3.83;1.77;;;;;;;20.58;45.17;101757.59;5200735;28;20412;-35
2022/07/03 02:17:17;;;;;;;5.33;1.60;;;;;;;20.59;45.30;101745.00;5198269;28;20417;-35
2022/07/03 02:19:56;;;;;;;4.43;2.15;;;;;;;20.56;45.34;101742.72;5199415;28;20421;-37
2022/07/03 02:22:34;;;;;;;3.70;1.40;;;;;;;20.63;45.41;101751.66;5202222;28;20429;-36
2022/07/03 02:25:10;;;;;;;4.43;2.10;;;;;;;20.63;45.70;101744.44;5200894;28;20443;-36
2022/07/03 02:27:44;;;;;;;4.70;2.10;;;;;;;20.48;45.52;101724.88;5199817;28;20413;-36
2022/07/03 02:30:20;;;;;;;5.47;1.80;;;;;;;20.63;45.65;101739.06;5200939;28;20768;-36
2022/07/03 02:32:55;;;;;;;5.83;1.87;;;;;;;20.48;45.55;101714.97;5201617;28;20891;-38
2022/07/03 02:35:31;;;;;;;5.43;2.15;;;;;;;20.64;45.68;101740.72;5199347;28;20425;-36
2022/07/03 02:38:09;;;;;;;3.65;2.05;;;;;;;20.62;45.84;101732.03;5199777;28;20828;-36
2022/07/03 02:40:51;;;;;;;3.75;1.85;;;;;;;20.60;45.99;101742.16;5196826;28;20944;-37
2022/07/03 02:43:32;;;;;;;4.80;1.90;;;;;;;20.54;45.90;101734.88;5200774;28;20750;-36
2022/07/03 02:49:03;;;;;;;7.63;2.28;;;;;;;20.62;46.15;101745.44;5193130;28;20429;-38
2022/07/03 02:51:41;;;;;;;4.75;1.90;;;;;;;20.60;46.10;101739.47;5196311;28;20429;-35
2022/07/03 02:54:26;;;;;;;4.30;2.08;;;;;;;20.58;46.14;101735.31;5197347;28;20505;-37
2022/07/03 02:57:07;;;;;;;4.43;1.90;;;;;;;20.62;46.23;101750.00;5201197;28;20444;-36
2022/07/03 02:59:54;;;;;;;7.30;1.80;;;;;;;20.56;46.34;101743.53;5199393;28;20417;-37
2022/07/03 03:02:55;;;;;;;7.05;2.00;;;;;;;20.57;46.41;101749.75;5198884;28;20417;-37
2022/07/03 03:05:36;;;;;;;19.33;2.33;;;;;;;20.51;46.69;101743.28;5194924;28;20417;-36
2022/07/03 03:08:19;;;;;;;4.95;1.80;;;;;;;20.41;46.61;101727.50;5196907;28;21047;-41
2022/07/03 03:10:52;;;;;;;4.50;1.80;;;;;;;20.48;46.77;101743.66;5192581;28;20497;-36
2022/07/03 03:13:31;;;;;;;3.90;1.85;;;;;;;20.46;46.97;101743.00;5194342;28;20524;-36
2022/07/03 03:16:08;;;;;;;4.72;1.98;;;;;;;20.41;46.92;101746.28;5194292;28;20425;-39
2022/07/03 03:18:43;;;;;;;8.25;2.05;;;;;;;20.42;47.21;101741.75;5188276;28;20731;-37
2022/07/03 03:21:20;;;;;;;6.07;1.80;;;;;;;20.40;47.17;101746.47;5193528;28;20546;-36
2022/07/03 03:23:53;;;;;;;3.67;1.50;;;;;;;20.32;47.35;101741.25;5194313;28;20430;-36
2022/07/03 03:26:30;;;;;;;5.55;1.67;;;;;;;20.34;47.65;101744.56;5194937;28;20431;-37
2022/07/03 03:29:03;;;;;;;3.47;1.60;;;;;;;20.31;47.72;101732.34;5196448;28;20433;-36
2022/07/03 03:31:36;;;;;;;8.90;1.52;;;;;;;20.37;47.79;101745.00;5193582;28;20429;-36
2022/07/03 03:34:12;;;;;;;4.00;1.45;;;;;;;20.37;47.76;101738.81;5192843;28;20440;-36
2022/07/03 03:36:44;;;;;;;3.65;1.70;;;;;;;20.23;47.81;101722.59;5190105;28;20423;-36
2022/07/03 03:39:17;;;;;;;10.10;1.80;;;;;;;20.33;48.33;101738.38;5190180;28;20481;-36
2022/07/03 03:41:51;;;;;;;10.55;1.98;;;;;;;20.21;48.17;101723.81;5194982;28;20465;-36
2022/07/03 03:44:24;;;;;;;6.88;1.80;;;;;;;20.21;48.33;101734.53;5193529;28;21030;-37
2022/07/03 03:46:57;;;;;;;4.82;1.83;;;;;;;20.19;48.70;101742.78;5193534;28;20429;-36
2022/07/03 03:49:31;;;;;;;4.80;1.70;;;;;;;20.18;48.59;101742.97;5192750;28;30895;-38
2022/07/03 03:52:05;;;;;;;5.47;1.80;;;;;;;20.15;48.95;101740.66;5192981;28;20938;-35
2022/07/03 03:54:38;;;;;;;3.47;1.48;;;;;;;20.13;48.99;101740.88;5192080;28;20421;-36
2022/07/03 03:57:22;;;;;;;9.27;1.75;;;;;;;20.04;49.22;101729.44;5192658;28;20417;-38
2022/07/03 03:59:56;;;;;;;6.47;1.83;;;;;;;19.97;49.22;101725.81;5193424;28;21073;-37
2022/07/03 04:02:29;;;;;;;5.95;2.00;;;;;;;19.66;49.33;101677.03;5194718;28;20448;-37
2022/07/03 04:05:04;;;;;;;4.90;1.63;;;;;;;19.95;49.45;101724.38;5200145;28;20745;-36
2022/07/03 04:07:37;;;;;;;5.20;1.67;;;;;;;19.99;49.52;101736.38;5195218;28;20503;-38
2022/07/03 04:10:10;;;;;;;7.65;1.90;;;;;;;19.75;49.68;101706.22;5196189;28;20431;-35
2022/07/03 04:12:43;;;;;;;6.23;1.77;;;;;;;19.93;49.84;101737.13;5197067;28;20534;-39
2022/07/03 04:15:16;;;;;;;5.03;1.92;;;;;;;19.86;49.87;101730.88;5198630;28;20486;-36
2022/07/03 04:17:52;;;;;;;5.80;2.15;;;;;;;19.93;50.01;101742.50;5197550;28;20417;-37
2022/07/03 04:20:27;;;;;;;5.68;1.80;;;;;;;19.95;50.03;101745.84;5198313;28;20427;-36
2022/07/03 04:23:00;;;;;;;6.88;2.17;;;;;;;19.58;50.29;101686.81;5197731;28;20432;-36
2022/07/03 04:25:33;;;;;;;6.53;2.13;;;;;;;19.95;50.43;101740.47;5198153;28;20435;-36
2022/07/03 04:28:06;;;;;;;9.48;2.17;;;;;;;19.88;50.61;101735.03;5199909;28;20413;-37
2022/07/03 04:30:38;;;;;;;7.90;2.03;;;;;;;19.92;50.46;101752.41;5200796;28;20617;-36
2022/07/03 04:33:11;;;;;;;5.43;1.98;;;;;;;19.94;50.86;101754.88;5196930;28;21299;-37
2022/07/03 04:35:45;;;;;;;8.43;1.75;;;;;;;19.92;50.97;101748.88;5199075;28;20437;-36
2022/07/03 04:38:18;;;;;;;6.57;2.07;;;;;;;19.97;50.84;101751.81;5200485;28;20498;-36
2022/07/03 04:40:51;;;;;;;7.30;2.13;;;;;;;19.96;50.96;101736.75;5199026;28;20451;-37
2022/07/03 04:43:23;;;;;;;8.15;2.33;;;;;;;20.06;51.04;101745.31;5201998;28;21028;-37
2022/07/03 04:45:56;;;;;;;7.88;2.10;;;;;;;20.10;51.22;101759.16;5197993;28;20421;-36
2022/07/03 04:48:30;;;;;;;10.27;2.25;;;;;;;20.10;51.28;101757.34;5199433;28;20514;-37
2022/07/03 04:51:04;;;;;;;5.60;1.52;;;;;;;20.03;51.42;101741.16;5196575;28;20413;-38
2022/07/03 04:53:36;;;;;;;6.97;1.93;;;;;;;20.10;51.39;101749.28;5197648;28;20872;-37
2022/07/03 04:56:09;;;;;;;5.80;1.63;;;;;;;20.15;51.43;101760.25;5197408;28;20413;-36
2022/07/03 04:58:42;;;;;;;6.10;1.70;;;;;;;20.17;51.59;101755.53;5191099;28;20445;-37
2022/07/03 05:01:15;;;;;;;7.18;2.20;;;;;;;20.23;51.26;101757.47;5200686;28;20429;-37
2022/07/03 05:03:50;;;;;;;7.73;2.10;;;;;;;20.31;51.44;101767.22;5199106;28;20440;-36
2022/07/03 05:06:24;;;;;;;8.95;1.98;;;;;;;20.40;51.51;101770.63;5187870;28;20773;-36
2022/07/03 05:08:57;;;;;;;10.82;2.22;;;;;;;20.50;51.54;101771.97;5166046;28;20523;-37
2022/07/03 05:11:30;;;;;;;10.30;2.80;;;;;;;20.86;51.18;101770.22;5196531;28;20424;-36
2022/07/03 05:14:03;;;;;;;7.57;2.00;;;;;;;22.04;49.88;101755.72;5199739;28;20413;-36
2022/07/03 05:16:35;;;;;;;10.73;2.35;;;;;;;23.70;48.28;101761.03;5198961;28;20429;-37
2022/07/03 05:19:08;;;;;;;7.93;1.80;;;;;;;25.23;46.61;101764.47;5197238;28;20481;-41
2022/07/03 05:21:42;;;;;;;9.90;1.83;;;;;;;26.74;45.00;101762.63;5188973;28;20490;-38
2022/07/03 05:24:15;;;;;;;11.10;2.20;;;;;;;27.90;43.65;101765.38;5187428;28;20927;-36
2022/07/03 05:26:48;;;;;;;5.72;2.13;;;;;;;28.87;42.21;101748.00;5199807;28;20768;-39
2022/07/03 05:29:20;;;;;;;7.90;2.42;;;;;;;29.73;41.21;101766.53;5195849;28;20437;-36
2022/07/03 05:31:53;;;;;;;8.88;2.13;;;;;;;29.73;41.30;101766.53;5195379;28;20447;-37
2022/07/03 05:34:31;;;;;;;8.88;2.17;;;;;;;30.44;40.16;101766.41;5197864;28;20903;-39
2022/07/03 05:37:05;;;;;;;9.88;1.95;;;;;;;31.23;39.02;101768.28;5197877;28;20890;-37
2022/07/03 05:39:38;;;;;;;4.53;1.35;;;;;;;31.36;38.74;101767.00;5197959;28;20730;-37
2022/07/03 05:42:11;;;;;;;8.05;1.60;;;;;;;31.06;38.88;101764.91;5192368;28;20936;-37
2022/07/03 05:44:44;;;;;;;9.35;2.10;;;;;;;30.87;38.79;101763.72;5201408;28;20421;-37
2022/07/03 05:47:16;;;;;;;8.97;1.93;;;;;;;30.97;38.71;101769.22;5202198;28;20414;-36
2022/07/03 05:49:49;;;;;;;7.07;1.67;;;;;;;31.86;37.36;101759.22;5202623;28;20428;-40
2022/07/03 05:52:23;;;;;;;11.10;2.10;;;;;;;32.83;36.28;101762.00;5198937;28;20424;-38
2022/07/03 05:54:58;;;;;;;6.30;1.73;;;;;;;33.83;34.87;101758.31;5195732;28;20526;-37
2022/07/03 05:57:31;;;;;;;6.05;1.70;;;;;;;34.80;34.14;101770.41;5199285;28;20516;-40
2022/07/03 06:00:06;;;;;;;6.20;1.63;;;;;;;35.42;33.07;101743.06;5199176;28;20401;-37
2022/07/03 06:02:39;;;;;;;8.57;1.70;;;;;;;36.16;32.57;101759.84;5201033;28;20988;-38
2022/07/03 06:05:12;;;;;;;6.43;1.50;;;;;;;36.69;31.56;101763.03;5196387;28;20417;-41
2022/07/03 06:07:46;;;;;;;8.27;1.85;;;;;;;37.32;31.03;101768.97;5200211;28;20429;-38
2022/07/03 06:10:18;;;;;;;8.30;2.45;;;;;;;37.60;30.71;101748.53;5202468;28;20489;-38
2022/07/03 06:12:51;;;;;;;5.50;1.40;;;;;;;38.00;30.06;101765.25;5198830;28;20439;-39
2022/07/03 06:15:24;;;;;;;10.30;1.67;;;;;;;38.30;29.78;101771.13;5201211;28;20431;-37
2022/07/03 06:17:57;;;;;;;8.40;1.70;;;;;;;38.44;29.31;101769.13;5198669;28;20417;-38
2022/07/03 06:20:30;;;;;;;6.97;1.90;;;;;;;38.50;29.36;101767.06;5200244;28;20567;-41
2022/07/03 06:23:04;;;;;;;7.68;1.60;;;;;;;38.64;28.92;101766.94;5201194;28;20418;-38
2022/07/03 06:25:37;;;;;;;5.97;1.60;;;;;;;38.70;28.78;101768.44;5185825;28;20816;-38
2022/07/03 06:28:10;;;;;;;6.00;1.52;;;;;;;39.17;28.12;101763.22;5195706;28;20413;-38
2022/07/03 06:30:42;;;;;;;6.47;1.47;;;;;;;39.67;27.49;101768.34;5192948;28;20423;-38
2022/07/03 06:33:15;;;;;;;6.65;1.73;;;;;;;39.74;27.58;101760.44;5195967;28;20409;-40
2022/07/03 06:35:48;;;;;;;5.78;1.50;;;;;;;39.09;27.90;101769.56;5198735;28;20853;-38
2022/07/03 06:38:22;;;;;;;7.67;1.63;;;;;;;37.92;28.58;101779.78;5187901;28;20493;-38
2022/07/03 06:40:55;;;;;;;10.20;2.20;;;;;;;36.54;29.37;101741.31;5200062;28;20422;-41
2022/07/03 06:43:28;;;;;;;6.07;1.80;;;;;;;35.78;29.85;101777.19;5196049;28;20429;-38
2022/07/03 06:46:00;;;;;;;4.82;1.38;;;;;;;35.21;29.79;101713.13;5176373;28;21970;-39
2022/07/03 06:48:34;;;;;;;6.70;1.57;;;;;;;35.87;29.60;101782.03;5180455;28;20412;-38
2022/07/03 06:51:06;;;;;;;4.07;1.42;;;;;;;35.26;30.22;101783.66;5196412;28;20467;-38
2022/07/03 06:53:40;;;;;;;6.47;1.58;;;;;;;34.48;30.57;101787.44;5197437;28;20490;-36
2022/07/03 06:56:13;;;;;;;6.82;1.73;;;;;;;33.57;31.20;101776.00;5185462;28;20754;-38
2022/07/03 06:58:46;;;;;;;6.83;1.57;;;;;;;32.81;31.61;101780.59;5183174;28;20507;-37
2022/07/03 07:01:18;;;;;;;5.85;1.40;;;;;;;32.65;31.70;101782.56;5196025;28;20573;-43
2022/07/03 07:03:51;;;;;;;3.13;1.30;;;;;;;33.01;31.43;101779.75;5196949;28;20797;-39
2022/07/03 07:06:24;;;;;;;6.57;1.55;;;;;;;33.24;31.43;101775.59;5198493;28;20508;-39
2022/07/03 07:08:59;;;;;;;5.38;1.40;;;;;;;33.38;31.23;101787.56;5198731;28;20433;-37
2022/07/03 07:11:32;;;;;;;5.25;1.40;;;;;;;33.03;31.18;101778.38;5197555;28;20418;-39
2022/07/03 07:14:05;;;;;;;7.97;1.40;;;;;;;33.41;31.26;101780.69;5201088;28;20500;-38
2022/07/03 07:16:38;;;;;;;5.10;1.17;;;;;;;34.00;30.66;101779.84;5200376;28;20778;-38
2022/07/03 07:19:10;;;;;;;5.40;1.27;;;;;;;34.56;30.08;101775.88;5197910;28;21351;-38
2022/07/03 07:21:43;;;;;;;6.93;1.67;;;;;;;34.60;30.10;101772.28;5197065;28;20805;-37
2022/07/03 07:24:17;;;;;;;6.00;2.05;;;;;;;34.35;30.00;101789.75;5198458;28;20453;-43
2022/07/03 07:26:50;;;;;;;6.05;1.83;;;;;;;33.84;30.56;101776.38;5197562;28;20511;-39
2022/07/03 07:29:22;;;;;;;3.78;1.35;;;;;;;33.49;30.82;101778.19;5194767;28;20508;-39
2022/07/03 07:31:55;;;;;;;5.45;1.25;;;;;;;33.21;30.76;101774.22;5198885;28;20753;-39
2022/07/03 07:34:28;;;;;;;5.35;1.35;;;;;;;33.24;30.86;101783.78;5169465;28;20466;-40
2022/07/03 07:37:01;;;;;;;5.27;1.40;;;;;;;33.25;30.88;101790.91;5199230;28;20413;-39
2022/07/03 07:39:35;;;;;;;4.47;1.15;;;;;;;33.19;30.64;101794.75;5199059;28;20425;-39
2022/07/03 07:42:08;;;;;;;7.03;1.63;;;;;;;33.06;30.94;101788.78;5194089;28;20440;-42
2022/07/03 07:44:41;;;;;;;8.43;1.45;;;;;;;32.86;30.93;101805.22;5192252;28;20497;-39
2022/07/03 07:47:14;;;;;;;7.23;2.00;;;;;;;32.66;30.88;101805.25;5191761;28;20431;-39
2022/07/03 07:49:47;;;;;;;5.30;1.60;;;;;;;32.41;31.07;101808.78;5193588;28;20421;-39
2022/07/03 07:52:19;;;;;;;7.10;1.92;;;;;;;31.99;31.46;101818.81;5191575;28;20508;-40
2022/07/03 07:54:53;;;;;;;4.07;1.42;;;;;;;31.49;31.71;101822.19;5197060;28;20952;-37
2022/07/03 07:57:26;;;;;;;3.35;1.10;;;;;;;30.91;32.28;101828.41;5195304;28;20983;-38
2022/07/03 07:59:59;;;;;;;5.63;1.40;;;;;;;30.41;32.65;101818.69;5192899;28;20428;-38
2022/07/03 08:05:37;;;;;;;3.67;0.98;;;;;;;29.59;33.57;101825.13;5192913;28;20764;-39
2022/07/03 08:08:13;;;;;;;8.65;1.85;;;;;;;29.31;33.78;101826.97;5193289;28;20421;-38
2022/07/03 08:10:50;;;;;;;5.03;2.00;;;;;;;29.18;33.97;101827.31;5188181;28;20451;-38
2022/07/03 08:13:23;;;;;;;5.30;1.30;;;;;;;28.99;34.05;101825.91;5191674;28;20846;-36
2022/07/03 08:15:56;;;;;;;5.43;1.60;;;;;;;28.97;34.30;101826.16;5193358;28;20931;-37
2022/07/03 08:18:29;;;;;;;5.22;1.45;;;;;;;28.94;34.43;101841.06;5192705;28;20457;-37
2022/07/03 08:21:02;;;;;;;3.05;1.10;;;;;;;28.93;34.66;101825.03;5195579;28;20452;-37
2022/07/03 08:23:34;;;;;;;5.10;1.13;;;;;;;29.14;34.69;101834.31;5196046;28;20524;-41
2022/07/03 08:26:08;;;;;;;4.47;1.40;;;;;;;29.14;34.51;101827.00;5195079;28;20890;-38
2022/07/03 08:28:41;;;;;;;4.18;1.35;;;;;;;29.37;34.57;101833.28;5192830;28;21065;-39
2022/07/03 08:31:14;;;;;;;7.90;2.00;;;;;;;29.50;34.41;101832.91;5194820;28;20428;-43
2022/07/03 08:33:46;;;;;;;5.90;0.95;;;;;;;29.66;34.45;101841.31;5192405;28;20433;-37
2022/07/03 08:36:19;;;;;;;3.47;1.50;;;;;;;29.97;34.12;101831.59;5165928;28;20954;-38
2022/07/03 08:38:52;;;;;;;3.40;1.20;;;;;;;30.13;33.96;101836.13;5192290;28;20519;-39
2022/07/03 08:41:27;;;;;;;4.30;1.23;;;;;;;30.18;33.90;101838.91;5193543;28;20421;-40
2022/07/03 08:44:01;;;;;;;3.53;1.25;;;;;;;30.19;33.75;101840.53;5195284;28;20536;-38
2022/07/03 08:46:34;;;;;;;3.80;1.05;;;;;;;30.18;33.76;101817.09;5194563;28;20426;-40
2022/07/03 08:49:08;;;;;;;2.70;1.08;;;;;;;30.47;33.55;101846.84;5191988;28;20448;-41
2022/07/03 08:51:43;;;;;;;4.65;1.10;;;;;;;30.49;33.60;101850.13;5193098;28;20895;-38
2022/07/03 08:54:15;;;;;;;3.95;0.90;;;;;;;30.52;33.54;101849.63;5189670;28;20420;-39
2022/07/03 08:56:50;;;;;;;4.60;1.30;;;;;;;30.54;33.53;101847.47;5196401;28;20443;-38
2022/07/03 08:59:24;;;;;;;4.80;1.23;;;;;;;30.54;33.58;101847.47;5192935;28;20801;-40
2022/07/03 09:01:57;;;;;;;2.90;1.13;;;;;;;30.46;33.51;101847.91;5195661;28;20435;-39
2022/07/03 09:04:30;;;;;;;3.30;1.13;;;;;;;30.44;33.43;101855.53;5196201;28;20863;-38
2022/07/03 09:07:03;;;;;;;2.28;1.05;;;;;;;30.45;33.59;101838.94;5196816;28;20421;-39
2022/07/03 09:09:37;;;;;;;4.82;1.13;;;;;;;30.64;33.30;101847.53;5193949;28;20413;-40
2022/07/03 09:12:13;;;;;;;2.60;0.87;;;;;;;30.68;33.40;101843.19;5195794;28;20457;-38
2022/07/03 09:14:46;;;;;;;3.78;0.90;;;;;;;30.69;33.31;101838.56;5195916;28;20417;-38
2022/07/03 09:17:19;;;;;;;3.13;0.85;;;;;;;30.55;33.11;101843.66;5198310;28;20421;-39
2022/07/03 09:19:52;;;;;;;3.07;0.87;;;;;;;30.53;33.45;101848.53;5197935;28;20465;-38
2022/07/03 09:22:30;;;;;;;4.10;1.25;;;;;;;30.58;33.53;101855.94;5196402;28;20495;-38
2022/07/03 09:25:08;;;;;;;1.95;0.88;;;;;;;30.80;33.13;101843.06;5197553;28;20428;-39
2022/07/03 09:27:52;;;;;;;2.33;0.85;;;;;;;30.97;32.76;101845.63;5197270;28;21119;-38
2022/07/03 09:30:26;;;;;;;2.20;0.80;;;;;;;31.01;32.97;101838.56;5200284;28;20417;-38
2022/07/03 09:32:59;;;;;;;2.55;0.88;;;;;;;31.19;32.53;101840.88;5199859;28;20428;-37
2022/07/03 09:35:32;;;;;;;3.67;1.10;;;;;;;31.38;32.59;101845.91;5200189;28;20405;-38
2022/07/03 09:38:05;;;;;;;3.15;1.00;;;;;;;31.63;32.16;101840.56;5202501;28;20396;-36
2022/07/03 09:40:49;;;;;;;5.47;0.95;;;;;;;31.77;32.20;101848.25;5176767;28;20436;-38
2022/07/03 09:43:29;;;;;;;1.35;0.68;;;;;;;31.72;31.86;101834.59;5192162;28;20413;-39
2022/07/03 09:46:04;;;;;;;3.30;0.80;;;;;;;31.59;31.97;101847.66;5200175;28;20412;-41
2022/07/03 09:48:39;;;;;;;2.20;0.70;;;;;;;31.45;32.32;101841.84;5201334;28;20425;-39
2022/07/03 09:51:29;;;;;;;4.85;0.85;;;;;;;31.26;32.17;101848.00;5201237;28;20512;-38
2022/07/03 09:54:04;;;;;;;1.48;0.70;;;;;;;31.10;32.23;101845.19;5194117;28;20436;-39
2022/07/03 09:56:39;;;;;;;1.45;0.60;;;;;;;30.87;32.21;101848.28;5198483;28;20539;-38
2022/07/03 09:59:14;;;;;;;4.63;0.80;;;;;;;30.83;32.13;101841.72;5190374;28;20418;-38
2022/07/03 10:01:48;;;;;;;3.65;1.08;;;;;;;30.92;31.94;101851.06;5196229;28;20492;-38
2022/07/03 10:04:23;;;;;;;0.90;0.57;;;;;;;30.95;31.83;101845.06;5187247;28;20945;-37
2022/07/03 10:06:57;;;;;;;3.65;0.80;;;;;;;31.11;31.93;101852.28;5202458;28;20813;-38
2022/07/03 10:09:32;;;;;;;2.38;0.73;;;;;;;31.21;31.56;101844.13;5201107;28;20822;-43
2022/07/03 10:12:06;;;;;;;2.03;0.50;;;;;;;31.31;31.46;101843.41;5197661;28;20488;-38
2022/07/03 10:14:40;;;;;;;0.88;0.52;;;;;;;31.27;31.53;101844.19;5184156;28;20421;-37
2022/07/03 10:17:14;;;;;;;1.88;0.68;;;;;;;31.00;31.65;101835.03;5195965;28;20431;-38
2022/07/03 10:19:46;;;;;;;3.15;0.80;;;;;;;30.81;31.86;101841.16;5198681;28;20425;-39
2022/07/03 10:22:24;;;;;;;1.20;0.50;;;;;;;30.75;31.95;101849.28;5198016;28;20520;-39
2022/07/03 10:24:57;;;;;;;1.80;0.80;;;;;;;30.57;31.94;101855.13;5200832;28;20759;-37
2022/07/03 10:27:34;;;;;;;1.55;0.30;;;;;;;30.56;32.17;101856.19;5198355;28;20767;-39
2022/07/03 10:30:10;;;;;;;5.40;0.40;;;;;;;30.47;32.02;101847.66;5199817;28;20765;-36
2022/07/03 10:32:47;;;;;;;3.00;0.50;;;;;;;30.53;31.91;101856.69;5194309;28;20421;-38
2022/07/03 10:35:25;;;;;;;2.63;0.50;;;;;;;30.53;31.82;101853.97;5199024;28;20558;-38
2022/07/03 10:38:19;;;;;;;1.83;0.60;;;;;;;30.58;31.71;101861.38;5199969;28;20953;-37
2022/07/03 10:46:43;;;;;;;1.00;0.60;;;;;;;30.37;32.03;101874.81;5190692;28;20425;-39
2022/07/03 10:49:16;;;;;;;1.90;0.40;;;;;;;30.28;32.13;101876.34;5198591;28;20441;-40
2022/07/03 10:51:57;;;;;;;0.70;0.52;;;;;;;30.16;32.12;101881.91;5197503;28;20872;-39
2022/07/03 10:54:33;;;;;;;1.17;0.38;;;;;;;30.15;32.11;101888.47;5195993;28;20461;-39
2022/07/03 10:57:19;;;;;;;2.35;0.85;;;;;;;30.00;32.11;101863.78;5195429;28;20403;-43
2022/07/03 11:00:17;;;;;;;1.40;0.52;;;;;;;29.97;32.32;101889.59;5193757;28;20424;-38
2022/07/03 11:02:53;;;;;;;1.50;0.50;;;;;;;29.93;32.46;101887.66;5189530;28;20507;-39
2022/07/03 11:05:38;;;;;;;2.67;0.63;;;;;;;29.96;32.28;101868.09;5192246;28;21201;-40
2022/07/03 11:08:13;;;;;;;2.28;0.70;;;;;;;30.28;31.99;101896.25;5192155;28;20428;-38
2022/07/03 11:11:54;;;;;;;0.70;0.38;;;;;;;30.43;32.00;101879.25;5188110;28;20428;-39
2022/07/03 11:13:58;;;;;;;1.42;0.47;;;;;;;30.56;31.79;101883.44;5194396;28;20426;-39
2022/07/03 11:16:31;;;;;;;1.40;0.55;;;;;;;30.77;31.46;101879.84;5197408;28;20425;-38
2022/07/03 11:19:05;;;;;;;1.30;0.60;;;;;;;30.76;31.50;101870.00;5194700;28;20416;-41
2022/07/03 11:21:43;;;;;;;2.80;0.68;;;;;;;30.60;31.60;101876.41;5194741;28;20464;-40
2022/07/03 11:24:34;;;;;;;1.75;0.50;;;;;;;30.44;31.81;101869.16;5189847;28;20453;-41
2022/07/03 11:27:26;;;;;;;1.30;0.70;;;;;;;30.37;31.85;101861.19;5185377;28;20435;-40
2022/07/03 11:30:00;;;;;;;2.15;0.57;;;;;;;30.56;31.55;101867.91;5197533;28;20482;-40
2022/07/03 11:32:57;;;;;;;2.00;0.70;;;;;;;30.49;31.68;101828.31;5194620;28;20553;-38
2022/07/03 11:35:53;;;;;;;1.52;0.70;;;;;;;30.78;31.57;101847.94;5195192;28;20429;-38
2022/07/03 11:38:29;;;;;;;2.30;0.40;;;;;;;30.73;31.61;101851.44;5194347;28;20425;-40
2022/07/03 11:41:02;;;;;;;2.20;0.55;;;;;;;30.70;31.83;101853.84;5198820;28;21271;-39
2022/07/03 11:43:35;;;;;;;1.90;0.60;;;;;;;30.52;31.92;101846.88;5193628;28;20417;-38
2022/07/03 11:46:08;;;;;;;2.83;0.77;;;;;;;30.60;31.68;101862.78;5194805;28;20425;-40
2022/07/03 11:48:41;;;;;;;3.90;0.57;;;;;;;30.50;31.53;101819.88;5195979;28;20511;-39
2022/07/03 11:51:16;;;;;;;1.23;0.60;;;;;;;30.79;31.39;101849.59;5191760;28;20424;-42
2022/07/03 11:53:49;;;;;;;1.70;0.70;;;;;;;30.88;31.50;101858.13;5196652;28;20781;-38
2022/07/03 11:56:22;;;;;;;3.23;0.60;;;;;;;31.04;31.44;101878.16;5194752;28;20520;-40
2022/07/03 11:58:57;;;;;;;1.15;0.40;;;;;;;30.86;31.38;101865.75;5194762;28;20457;-38
2022/07/03 12:01:33;;;;;;;1.40;0.60;;;;;;;30.72;31.31;101854.41;5191376;28;20437;-38
2022/07/03 12:04:10;;;;;;;2.67;0.88;;;;;;;30.63;31.23;101862.25;5193744;28;20791;-41
2022/07/03 12:06:48;;;;;;;1.07;0.50;;;;;;;30.61;31.48;101869.88;5191672;28;20876;-40
2022/07/03 12:09:23;;;;;;;2.90;0.40;;;;;;;30.43;31.47;101862.06;5189167;28;20440;-39
2022/07/03 12:12:02;;;;;;;5.10;0.73;;;;;;;30.51;31.36;101869.78;5194203;28;20422;-39
2022/07/03 12:14:44;;;;;;;1.35;0.68;;;;;;;30.48;31.40;101870.31;5189064;28;20418;-40
2022/07/03 12:17:20;;;;;;;1.40;0.70;;;;;;;30.62;31.25;101879.69;5190061;28;20486;-39